createdAt,value
2018-06-17T00:00:07.364Z,0.00
2018-06-17T00:01:07.356Z,0.00
2018-06-17T00:02:07.349Z,0.00
2018-06-17T00:03:07.343Z,0.00
2018-06-17T00:04:07.335Z,0.00
2018-06-17T00:05:07.330Z,0.00
2018-06-17T00:06:07.321Z,0.00
2018-06-17T00:07:07.314Z,0.00
2018-06-17T00:08:07.307Z,0.00
2018-06-17T00:09:07.300Z,0.00
2018-06-17T00:10:07.292Z,0.00
2018-06-17T00:11:07.286Z,0.00
2018-06-17T00:12:07.279Z,0.00
2018-06-17T00:13:07.272Z,0.00
2018-06-17T00:14:07.268Z,0.00
2018-06-17T00:15:07.257Z,0.00
2018-06-17T00:16:07.251Z,0.00
2018-06-17T00:18:07.236Z,0.00
2018-06-17T00:19:07.229Z,0.00
2018-06-17T00:20:07.222Z,0.00
2018-06-17T00:21:07.220Z,0.00
2018-06-17T00:22:07.208Z,0.00
2018-06-17T00:23:07.201Z,0.00
2018-06-17T00:24:07.194Z,0.00
2018-06-17T00:25:07.187Z,0.00
2018-06-17T00:26:07.182Z,0.00
2018-06-17T00:27:07.173Z,0.00
2018-06-17T00:28:07.166Z,0.00
2018-06-17T00:29:07.163Z,0.00
2018-06-17T00:30:07.151Z,0.00
2018-06-17T00:31:07.144Z,0.00
2018-06-17T00:32:07.137Z,0.00
2018-06-17T00:33:07.130Z,0.00
2018-06-17T00:34:07.123Z,0.00
2018-06-17T00:35:07.116Z,0.00
2018-06-17T00:36:07.109Z,0.00
2018-06-17T00:37:07.104Z,0.00
2018-06-17T00:38:07.094Z,0.00
2018-06-17T00:39:07.123Z,0.00
2018-06-17T00:40:07.085Z,0.00
2018-06-17T00:41:07.076Z,0.00
2018-06-17T00:42:07.065Z,0.00
2018-06-17T00:43:07.058Z,0.00
2018-06-17T00:44:07.052Z,0.00
2018-06-17T00:45:07.048Z,0.00
2018-06-17T00:46:07.037Z,0.00
2018-06-17T00:47:07.029Z,0.00
2018-06-17T00:48:07.025Z,0.00
2018-06-17T00:49:07.021Z,0.00
2018-06-17T00:50:07.009Z,0.00
2018-06-17T00:51:07.000Z,0.00
2018-06-17T00:52:06.995Z,0.00
2018-06-17T00:53:06.987Z,0.00
2018-06-17T00:54:06.981Z,0.00
2018-06-17T00:55:06.971Z,0.00
2018-06-17T00:56:06.968Z,0.00
2018-06-17T00:57:06.957Z,0.00
2018-06-17T00:58:06.948Z,0.00
2018-06-17T00:59:06.942Z,0.00
2018-06-17T01:00:06.937Z,0.00
2018-06-17T01:01:06.927Z,0.00
2018-06-17T01:02:06.920Z,0.00
2018-06-17T01:03:06.912Z,0.00
2018-06-17T01:04:06.905Z,0.00
2018-06-17T01:05:06.899Z,0.00
2018-06-17T01:06:06.890Z,0.00
2018-06-17T01:07:06.882Z,0.00
2018-06-17T01:08:06.875Z,0.00
2018-06-17T01:09:06.868Z,0.00
2018-06-17T01:10:06.860Z,0.00
2018-06-17T01:11:06.858Z,0.00
2018-06-17T01:12:06.849Z,0.00
2018-06-17T01:13:06.839Z,0.00
2018-06-17T01:14:06.830Z,0.00
2018-06-17T01:15:06.825Z,0.00
2018-06-17T01:16:06.816Z,0.00
2018-06-17T01:17:06.809Z,0.00
2018-06-17T01:18:06.800Z,0.00
2018-06-17T01:19:06.794Z,0.00
2018-06-17T01:20:06.786Z,0.00
2018-06-17T01:21:06.781Z,0.00
2018-06-17T01:22:06.772Z,0.00
2018-06-17T01:23:06.764Z,0.00
2018-06-17T01:24:06.757Z,0.00
2018-06-17T01:25:06.749Z,0.00
2018-06-17T01:26:06.741Z,0.00
2018-06-17T01:27:06.738Z,0.00
2018-06-17T01:28:06.727Z,0.00
2018-06-17T01:29:06.719Z,0.00
2018-06-17T01:30:06.715Z,0.00
2018-06-17T01:31:06.704Z,0.00
2018-06-17T01:32:06.697Z,0.00
2018-06-17T01:33:06.691Z,0.00
2018-06-17T01:34:06.683Z,0.00
2018-06-17T01:35:06.675Z,0.00
2018-06-17T01:36:06.668Z,0.00
2018-06-17T01:37:06.661Z,0.00
2018-06-17T01:38:06.658Z,0.00
2018-06-17T01:39:06.646Z,0.00
2018-06-17T01:40:06.640Z,0.00
2018-06-17T01:41:06.632Z,0.00
2018-06-17T01:42:06.624Z,0.00
2018-06-17T01:43:06.618Z,0.00
2018-06-17T01:44:06.610Z,0.00
2018-06-17T01:45:06.606Z,0.00
2018-06-17T01:46:06.596Z,0.00
2018-06-17T01:47:06.589Z,0.00
2018-06-17T01:48:06.583Z,0.00
2018-06-17T01:49:06.580Z,0.00
2018-06-17T01:50:06.569Z,0.00
2018-06-17T01:51:06.561Z,0.00
2018-06-17T01:52:06.554Z,0.00
2018-06-17T01:53:06.547Z,0.00
2018-06-17T01:54:06.541Z,0.00
2018-06-17T01:55:06.532Z,0.00
2018-06-17T01:56:06.529Z,0.00
2018-06-17T01:57:06.727Z,0.00
2018-06-17T01:58:06.517Z,0.00
2018-06-17T01:59:06.504Z,0.00
2018-06-17T02:00:06.498Z,0.00
2018-06-17T02:01:06.492Z,0.00
2018-06-17T02:02:06.483Z,0.00
2018-06-17T02:03:06.476Z,0.00
2018-06-17T02:04:06.469Z,0.00
2018-06-17T02:05:06.464Z,0.00
2018-06-17T02:06:06.458Z,0.00
2018-06-17T02:07:06.449Z,0.00
2018-06-17T02:08:06.445Z,0.00
2018-06-17T02:09:06.437Z,0.00
2018-06-17T02:10:06.428Z,0.00
2018-06-17T02:11:06.422Z,0.00
2018-06-17T02:12:06.419Z,0.00
2018-06-17T02:13:06.409Z,0.00
2018-06-17T02:14:06.401Z,0.00
2018-06-17T02:15:06.394Z,0.00
2018-06-17T02:16:06.388Z,0.00
2018-06-17T02:17:06.382Z,0.00
2018-06-17T02:18:06.375Z,0.00
2018-06-17T02:19:06.368Z,0.00
2018-06-17T02:20:06.362Z,0.00
2018-06-17T02:21:06.355Z,0.00
2018-06-17T02:22:06.348Z,0.00
2018-06-17T02:23:06.341Z,0.00
2018-06-17T02:24:06.338Z,0.00
2018-06-17T02:25:06.328Z,0.00
2018-06-17T02:26:06.322Z,0.00
2018-06-17T02:27:06.315Z,0.00
2018-06-17T02:28:06.308Z,0.00
2018-06-17T02:29:06.305Z,0.00
2018-06-17T02:30:06.301Z,0.00
2018-06-17T02:31:06.294Z,0.00
2018-06-17T02:32:06.283Z,0.00
2018-06-17T02:33:06.276Z,0.00
2018-06-17T02:34:06.269Z,0.00
2018-06-17T02:35:06.263Z,0.00
2018-06-17T02:36:06.256Z,0.00
2018-06-17T02:37:06.251Z,0.00
2018-06-17T02:38:06.242Z,0.00
2018-06-17T02:39:06.236Z,0.00
2018-06-17T02:40:06.230Z,0.00
2018-06-17T02:41:06.224Z,0.00
2018-06-17T02:42:06.216Z,0.00
2018-06-17T02:43:06.212Z,0.00
2018-06-17T02:44:06.204Z,0.00
2018-06-17T02:45:06.209Z,0.00
2018-06-17T02:46:06.193Z,0.00
2018-06-17T02:47:06.183Z,0.00
2018-06-17T02:48:06.176Z,0.00
2018-06-17T02:49:06.170Z,0.00
2018-06-17T02:50:06.161Z,0.00
2018-06-17T02:51:06.156Z,0.00
2018-06-17T02:52:06.150Z,0.00
2018-06-17T02:53:06.145Z,0.00
2018-06-17T02:54:06.136Z,0.00
2018-06-17T02:55:06.163Z,0.00
2018-06-17T02:56:06.127Z,0.00
2018-06-17T02:57:06.120Z,0.00
2018-06-17T02:58:06.108Z,0.00
2018-06-17T02:59:06.101Z,0.00
2018-06-17T03:00:06.096Z,0.00
2018-06-17T03:01:06.092Z,0.00
2018-06-17T03:02:06.081Z,0.00
2018-06-17T03:03:06.074Z,0.00
2018-06-17T03:04:06.068Z,0.00
2018-06-17T03:05:06.062Z,0.00
2018-06-17T03:06:06.054Z,0.00
2018-06-17T03:07:06.048Z,0.00
2018-06-17T03:08:06.040Z,0.00
2018-06-17T03:09:06.034Z,0.00
2018-06-17T03:10:06.027Z,0.00
2018-06-17T03:11:06.020Z,0.00
2018-06-17T03:12:06.014Z,0.00
2018-06-17T03:13:06.007Z,0.00
2018-06-17T03:14:06.000Z,0.00
2018-06-17T03:15:06.198Z,0.00
2018-06-17T03:16:05.989Z,0.00
2018-06-17T03:17:05.980Z,0.00
2018-06-17T03:18:05.978Z,0.00
2018-06-17T03:19:05.974Z,5.63
2018-06-17T03:20:05.959Z,5.63
2018-06-17T03:21:05.953Z,5.63
2018-06-17T03:22:05.946Z,5.63
2018-06-17T03:23:05.943Z,5.63
2018-06-17T03:24:05.932Z,5.63
2018-06-17T03:25:06.129Z,5.63
2018-06-17T03:26:05.918Z,5.63
2018-06-17T03:27:05.920Z,5.63
2018-06-17T03:28:05.905Z,5.63
2018-06-17T03:29:05.899Z,5.63
2018-06-17T03:30:05.896Z,5.63
2018-06-17T03:31:05.886Z,11.25
2018-06-17T03:32:05.883Z,11.25
2018-06-17T03:33:05.873Z,11.25
2018-06-17T03:34:05.866Z,16.88
2018-06-17T03:35:05.860Z,16.88
2018-06-17T03:36:05.853Z,16.88
2018-06-17T03:37:05.846Z,22.50
2018-06-17T03:38:05.841Z,22.50
2018-06-17T03:39:05.832Z,22.50
2018-06-17T03:40:05.827Z,28.13
2018-06-17T03:41:05.827Z,28.13
2018-06-17T03:42:05.819Z,33.75
2018-06-17T03:43:05.805Z,33.75
2018-06-17T03:44:05.804Z,39.38
2018-06-17T03:45:05.793Z,39.38
2018-06-17T03:46:05.792Z,39.38
2018-06-17T03:47:05.790Z,39.38
2018-06-17T03:48:05.779Z,45.00
2018-06-17T03:49:05.767Z,45.00
2018-06-17T03:50:05.765Z,45.00
2018-06-17T03:51:05.757Z,45.00
2018-06-17T03:52:05.747Z,45.00
2018-06-17T03:53:05.745Z,50.63
2018-06-17T03:54:05.734Z,50.63
2018-06-17T03:55:05.727Z,50.63
2018-06-17T03:56:05.720Z,56.25
2018-06-17T03:57:05.715Z,56.25
2018-06-17T03:58:05.708Z,50.63
2018-06-17T03:59:05.705Z,56.25
2018-06-17T04:00:05.695Z,56.25
2018-06-17T04:01:05.688Z,61.88
2018-06-17T04:02:05.686Z,61.88
2018-06-17T04:03:05.674Z,61.88
2018-06-17T04:04:05.676Z,56.25
2018-06-17T04:05:05.665Z,56.25
2018-06-17T04:06:05.655Z,56.25
2018-06-17T04:07:05.650Z,61.88
2018-06-17T04:08:05.644Z,67.50
2018-06-17T04:09:05.636Z,67.50
2018-06-17T04:10:05.628Z,73.13
2018-06-17T04:11:05.622Z,73.13
2018-06-17T04:12:05.821Z,67.50
2018-06-17T04:13:05.609Z,61.88
2018-06-17T04:14:05.604Z,61.88
2018-06-17T04:15:05.596Z,61.88
2018-06-17T04:16:05.625Z,61.88
2018-06-17T04:17:05.583Z,61.88
2018-06-17T04:18:05.577Z,73.13
2018-06-17T04:19:05.569Z,78.75
2018-06-17T04:20:05.568Z,78.75
2018-06-17T04:21:05.558Z,78.75
2018-06-17T04:22:05.551Z,84.38
2018-06-17T04:23:05.544Z,95.63
2018-06-17T04:24:05.537Z,118.13
2018-06-17T04:25:05.531Z,123.75
2018-06-17T04:26:05.524Z,118.13
2018-06-17T04:27:05.518Z,123.75
2018-06-17T04:28:05.511Z,118.13
2018-06-17T04:29:05.507Z,118.13
2018-06-17T04:30:05.500Z,123.75
2018-06-17T04:32:05.486Z,140.63
2018-06-17T04:33:05.683Z,146.25
2018-06-17T04:34:05.473Z,151.88
2018-06-17T04:35:05.467Z,151.88
2018-06-17T04:37:05.460Z,163.13
2018-06-17T04:38:05.447Z,168.75
2018-06-17T04:39:05.441Z,174.38
2018-06-17T04:40:05.437Z,174.38
2018-06-17T04:41:05.429Z,174.38
2018-06-17T04:42:05.423Z,174.38
2018-06-17T04:43:05.418Z,174.38
2018-06-17T04:44:05.417Z,180.00
2018-06-17T04:45:05.612Z,180.00
2018-06-17T04:46:05.398Z,185.63
2018-06-17T04:47:05.392Z,185.63
2018-06-17T04:48:05.386Z,191.25
2018-06-17T04:49:05.380Z,185.63
2018-06-17T04:50:05.378Z,185.63
2018-06-17T04:51:05.367Z,208.13
2018-06-17T04:52:05.361Z,196.88
2018-06-17T04:53:05.359Z,191.25
2018-06-17T04:54:05.348Z,202.50
2018-06-17T04:55:05.344Z,202.50
2018-06-17T04:56:05.339Z,202.50
2018-06-17T04:57:05.331Z,202.50
2018-06-17T04:58:05.325Z,208.13
2018-06-17T04:59:05.319Z,202.50
2018-06-17T05:00:05.354Z,196.88
2018-06-17T05:01:05.308Z,208.13
2018-06-17T05:02:05.299Z,208.13
2018-06-17T05:03:05.293Z,185.63
2018-06-17T05:04:05.291Z,185.63
2018-06-17T05:05:05.484Z,236.25
2018-06-17T05:06:05.282Z,185.63
2018-06-17T05:07:05.275Z,196.88
2018-06-17T05:08:05.264Z,225.00
2018-06-17T05:09:05.257Z,258.75
2018-06-17T05:10:05.253Z,286.88
2018-06-17T05:11:05.244Z,292.50
2018-06-17T05:12:05.239Z,253.13
2018-06-17T05:13:05.233Z,247.50
2018-06-17T05:14:05.428Z,303.75
2018-06-17T05:15:05.221Z,326.25
2018-06-17T05:16:05.219Z,315.00
2018-06-17T05:17:05.229Z,320.63
2018-06-17T05:18:05.205Z,354.38
2018-06-17T05:20:05.192Z,405.00
2018-06-17T05:21:05.185Z,388.13
2018-06-17T05:22:05.184Z,315.00
2018-06-17T05:23:05.176Z,236.25
2018-06-17T05:24:05.172Z,213.75
2018-06-17T05:25:05.163Z,236.25
2018-06-17T05:26:05.159Z,253.13
2018-06-17T05:27:05.151Z,241.88
2018-06-17T05:28:05.149Z,213.75
2018-06-17T05:29:05.141Z,196.88
2018-06-17T05:30:05.134Z,213.75
2018-06-17T05:31:05.129Z,247.50
2018-06-17T05:32:05.131Z,281.25
2018-06-17T05:33:05.120Z,298.13
2018-06-17T05:34:05.113Z,292.50
2018-06-17T05:35:05.108Z,309.38
2018-06-17T05:36:05.100Z,337.50
2018-06-17T05:37:05.102Z,376.88
2018-06-17T05:38:05.088Z,410.63
2018-06-17T05:39:05.082Z,421.88
2018-06-17T05:40:05.080Z,382.50
2018-06-17T05:41:05.071Z,405.00
2018-06-17T05:42:05.071Z,303.75
2018-06-17T05:43:05.064Z,236.25
2018-06-17T05:44:05.055Z,225.00
2018-06-17T05:45:05.050Z,230.63
2018-06-17T05:46:05.047Z,219.38
2018-06-17T05:47:05.038Z,225.00
2018-06-17T05:48:05.033Z,247.50
2018-06-17T05:49:05.028Z,275.63
2018-06-17T05:50:05.021Z,315.00
2018-06-17T05:51:05.016Z,315.00
2018-06-17T05:52:05.010Z,315.00
2018-06-17T05:53:05.005Z,326.25
2018-06-17T05:54:04.998Z,309.38
2018-06-17T05:55:04.993Z,309.38
2018-06-17T05:56:04.989Z,337.50
2018-06-17T05:57:04.985Z,393.75
2018-06-17T05:58:04.976Z,427.50
2018-06-17T05:59:04.973Z,410.63
2018-06-17T06:00:04.972Z,405.00
2018-06-17T06:01:04.960Z,427.50
2018-06-17T06:02:04.953Z,438.75
2018-06-17T06:03:04.954Z,444.38
2018-06-17T06:05:04.938Z,433.13
2018-06-17T06:06:04.936Z,433.13
2018-06-17T06:07:04.926Z,450.00
2018-06-17T06:08:04.923Z,444.38
2018-06-17T06:09:04.920Z,444.38
2018-06-17T06:10:04.913Z,450.00
2018-06-17T06:11:04.912Z,444.38
2018-06-17T06:12:04.922Z,450.00
2018-06-17T06:13:04.895Z,444.38
2018-06-17T06:14:04.895Z,433.13
2018-06-17T06:15:05.086Z,433.13
2018-06-17T06:16:04.878Z,455.63
2018-06-17T06:17:04.872Z,478.13
2018-06-17T06:18:04.866Z,483.75
2018-06-17T06:19:04.861Z,495.00
2018-06-17T06:20:04.857Z,511.88
2018-06-17T06:21:04.851Z,568.13
2018-06-17T06:22:04.845Z,590.63
2018-06-17T06:23:04.840Z,562.50
2018-06-17T06:24:04.841Z,568.13
2018-06-17T06:25:04.836Z,562.50
2018-06-17T06:26:04.829Z,590.63
2018-06-17T06:27:04.821Z,596.25
2018-06-17T06:28:04.815Z,579.38
2018-06-17T06:29:04.820Z,585.00
2018-06-17T06:30:04.805Z,568.13
2018-06-17T06:31:04.868Z,596.25
2018-06-17T06:32:04.799Z,607.50
2018-06-17T06:33:04.792Z,601.88
2018-06-17T06:34:04.785Z,534.38
2018-06-17T06:35:04.781Z,495.00
2018-06-17T06:36:04.777Z,478.13
2018-06-17T06:37:04.773Z,511.88
2018-06-17T06:38:04.768Z,585.00
2018-06-17T06:39:04.765Z,596.25
2018-06-17T06:40:04.762Z,562.50
2018-06-17T06:41:04.758Z,601.88
2018-06-17T06:42:04.750Z,613.13
2018-06-17T06:43:04.745Z,579.38
2018-06-17T06:44:04.744Z,596.25
2018-06-17T06:45:04.737Z,630.00
2018-06-17T06:46:04.734Z,585.00
2018-06-17T06:47:04.731Z,596.25
2018-06-17T06:48:04.730Z,590.63
2018-06-17T06:49:04.721Z,607.50
2018-06-17T06:50:04.750Z,686.25
2018-06-17T06:51:04.757Z,731.25
2018-06-17T06:52:04.711Z,731.25
2018-06-17T06:53:04.706Z,731.25
2018-06-17T06:54:04.703Z,787.50
2018-06-17T06:55:04.698Z,776.25
2018-06-17T06:56:04.690Z,765.00
2018-06-17T06:57:04.889Z,748.13
2018-06-17T06:58:04.681Z,826.88
2018-06-17T06:59:04.678Z,810.00
2018-06-17T07:00:04.877Z,804.38
2018-06-17T07:01:04.671Z,866.25
2018-06-17T07:02:04.666Z,911.25
2018-06-17T07:03:04.662Z,832.50
2018-06-17T07:04:04.659Z,815.63
2018-06-17T07:05:04.657Z,770.63
2018-06-17T07:06:04.654Z,787.50
2018-06-17T07:07:04.648Z,843.75
2018-06-17T07:08:04.644Z,843.75
2018-06-17T07:09:04.641Z,826.88
2018-06-17T07:10:04.643Z,787.50
2018-06-17T07:11:04.642Z,714.38
2018-06-17T07:12:04.632Z,714.38
2018-06-17T07:13:04.628Z,725.63
2018-06-17T07:14:04.624Z,753.75
2018-06-17T07:15:04.627Z,855.00
2018-06-17T07:16:04.619Z,787.50
2018-06-17T07:17:04.624Z,669.38
2018-06-17T07:18:05.815Z,703.13
2018-06-17T07:19:04.607Z,720.00
2018-06-17T07:20:04.604Z,725.63
2018-06-17T07:21:04.600Z,748.13
2018-06-17T07:22:04.604Z,770.63
2018-06-17T07:23:04.597Z,765.00
2018-06-17T07:24:04.590Z,736.88
2018-06-17T07:25:04.620Z,658.13
2018-06-17T07:26:04.584Z,613.13
2018-06-17T07:27:04.588Z,641.25
2018-06-17T07:28:04.576Z,663.75
2018-06-17T07:29:04.573Z,708.75
2018-06-17T07:30:04.573Z,798.75
2018-06-17T07:31:04.565Z,804.38
2018-06-17T07:32:04.561Z,871.88
2018-06-17T07:33:04.564Z,967.50
2018-06-17T07:34:04.554Z,877.50
2018-06-17T07:35:04.551Z,911.25
2018-06-17T07:36:04.550Z,916.88
2018-06-17T07:37:04.551Z,933.75
2018-06-17T07:38:04.745Z,1080.00
2018-06-17T07:39:04.538Z,1276.88
2018-06-17T07:40:04.533Z,1243.13
2018-06-17T07:41:04.538Z,1164.38
2018-06-17T07:42:04.527Z,1108.13
2018-06-17T07:43:04.524Z,1096.88
2018-06-17T07:44:04.521Z,1006.88
2018-06-17T07:45:04.519Z,798.75
2018-06-17T07:46:04.515Z,770.63
2018-06-17T07:47:04.517Z,821.25
2018-06-17T07:48:04.515Z,855.00
2018-06-17T07:49:04.512Z,860.63
2018-06-17T07:50:04.506Z,905.63
2018-06-17T07:51:04.502Z,995.63
2018-06-17T07:52:04.503Z,956.25
2018-06-17T07:53:04.497Z,978.75
2018-06-17T07:54:04.493Z,990.00
2018-06-17T07:55:04.491Z,1068.75
2018-06-17T07:56:04.548Z,1423.13
2018-06-17T07:57:04.492Z,1473.75
2018-06-17T07:58:04.485Z,1440.00
2018-06-17T07:59:04.481Z,1451.25
2018-06-17T08:00:04.479Z,1361.25
2018-06-17T08:01:04.478Z,1389.38
2018-06-17T08:02:04.477Z,1389.38
2018-06-17T08:03:04.474Z,1440.00
2018-06-17T08:04:04.472Z,1428.75
2018-06-17T08:05:04.471Z,1423.13
2018-06-17T08:06:04.468Z,1383.75
2018-06-17T08:07:04.469Z,1288.13
2018-06-17T08:08:04.669Z,1119.38
2018-06-17T08:09:04.466Z,883.13
2018-06-17T08:10:04.473Z,1051.88
2018-06-17T08:11:04.558Z,1203.75
2018-06-17T08:12:04.463Z,1181.25
2018-06-17T08:13:04.465Z,1096.88
2018-06-17T08:14:04.460Z,1136.25
2018-06-17T08:15:04.461Z,978.75
2018-06-17T08:16:04.457Z,832.50
2018-06-17T08:17:04.453Z,911.25
2018-06-17T08:18:04.459Z,759.38
2018-06-17T08:19:04.453Z,590.63
2018-06-17T08:20:04.449Z,551.25
2018-06-17T08:21:04.449Z,652.50
2018-06-17T08:22:04.450Z,787.50
2018-06-17T08:23:04.441Z,635.63
2018-06-17T08:24:04.443Z,787.50
2018-06-17T08:25:04.437Z,1164.38
2018-06-17T08:26:04.434Z,1102.50
2018-06-17T08:27:04.432Z,945.00
2018-06-17T08:28:04.435Z,905.63
2018-06-17T08:29:04.431Z,1018.13
2018-06-17T08:30:04.428Z,1530.00
2018-06-17T08:31:04.423Z,1653.75
2018-06-17T08:32:04.421Z,1203.75
2018-06-17T08:33:04.419Z,1209.38
2018-06-17T08:34:04.417Z,1170.00
2018-06-17T08:35:04.421Z,1513.13
2018-06-17T08:36:04.414Z,1608.75
2018-06-17T08:37:04.413Z,1400.63
2018-06-17T08:38:04.612Z,1141.88
2018-06-17T08:39:04.411Z,1006.88
2018-06-17T08:40:04.408Z,1091.25
2018-06-17T08:41:04.409Z,1051.88
2018-06-17T08:42:04.405Z,871.88
2018-06-17T08:43:04.404Z,669.38
2018-06-17T08:44:04.410Z,472.50
2018-06-17T08:45:04.402Z,331.88
2018-06-17T08:46:04.406Z,365.63
2018-06-17T08:47:04.398Z,495.00
2018-06-17T08:48:04.397Z,545.63
2018-06-17T08:49:04.396Z,624.38
2018-06-17T08:50:04.399Z,793.13
2018-06-17T08:51:04.396Z,883.13
2018-06-17T08:52:04.388Z,720.00
2018-06-17T08:53:04.589Z,714.38
2018-06-17T08:54:04.385Z,748.13
2018-06-17T08:55:04.381Z,753.75
2018-06-17T08:56:04.379Z,815.63
2018-06-17T08:57:04.579Z,1046.25
2018-06-17T08:58:04.373Z,1411.88
2018-06-17T08:59:04.375Z,1496.25
2018-06-17T09:00:04.575Z,1524.38
2018-06-17T09:01:04.372Z,1383.75
2018-06-17T09:02:04.369Z,1321.88
2018-06-17T09:03:04.363Z,1389.38
2018-06-17T09:04:04.364Z,1546.88
2018-06-17T09:05:04.363Z,1586.25
2018-06-17T09:06:04.360Z,2002.50
2018-06-17T09:07:04.360Z,1816.88
2018-06-17T09:08:04.357Z,1721.25
2018-06-17T09:09:04.362Z,1620.00
2018-06-17T09:10:04.358Z,1361.25
2018-06-17T09:11:04.352Z,1237.50
2018-06-17T09:12:04.353Z,1175.63
2018-06-17T09:13:04.351Z,1158.75
2018-06-17T09:14:04.349Z,1186.88
2018-06-17T09:15:04.348Z,1198.13
2018-06-17T09:16:04.348Z,1215.00
2018-06-17T09:17:04.351Z,1141.88
2018-06-17T09:18:04.352Z,916.88
2018-06-17T09:19:04.345Z,843.75
2018-06-17T09:20:04.352Z,1040.63
2018-06-17T09:21:04.345Z,1158.75
2018-06-17T09:22:04.341Z,1254.38
2018-06-17T09:23:04.343Z,1293.75
2018-06-17T09:24:04.342Z,1282.50
2018-06-17T09:25:04.342Z,1243.13
2018-06-17T09:26:04.337Z,1209.38
2018-06-17T09:27:04.336Z,1170.00
2018-06-17T09:28:04.341Z,1181.25
2018-06-17T09:29:04.539Z,1338.75
2018-06-17T09:30:04.332Z,1788.75
2018-06-17T09:31:04.333Z,2255.63
2018-06-17T09:32:04.401Z,2683.13
2018-06-17T09:33:04.332Z,2795.63
2018-06-17T09:34:04.329Z,2565.00
2018-06-17T09:35:04.332Z,2418.75
2018-06-17T09:36:04.335Z,2756.25
2018-06-17T09:37:04.332Z,2598.75
2018-06-17T09:38:04.389Z,2435.63
2018-06-17T09:39:04.340Z,2733.75
2018-06-17T09:40:04.338Z,2823.75
2018-06-17T09:41:04.340Z,2334.38
2018-06-17T09:42:04.342Z,2289.38
2018-06-17T09:43:04.345Z,2233.13
2018-06-17T09:45:04.355Z,2081.25
2018-06-17T09:46:04.363Z,1873.13
2018-06-17T09:47:04.359Z,1698.75
2018-06-17T09:48:04.367Z,1636.88
2018-06-17T09:49:04.365Z,1755.00
2018-06-17T09:50:04.369Z,1164.38
2018-06-17T09:51:04.369Z,1372.50
2018-06-17T09:52:04.414Z,1355.63
2018-06-17T09:53:04.378Z,956.25
2018-06-17T09:54:04.379Z,832.50
2018-06-17T09:55:04.377Z,742.50
2018-06-17T09:56:04.381Z,900.00
2018-06-17T09:57:04.380Z,900.00
2018-06-17T09:58:04.384Z,888.75
2018-06-17T09:59:04.381Z,866.25
2018-06-17T10:00:04.382Z,860.63
2018-06-17T10:01:04.384Z,939.38
2018-06-17T10:02:04.382Z,1338.75
2018-06-17T10:04:04.382Z,1479.38
2018-06-17T10:05:04.382Z,1636.88
2018-06-17T10:06:04.381Z,1833.75
2018-06-17T10:07:04.382Z,1828.13
2018-06-17T10:08:04.381Z,1293.75
2018-06-17T10:09:04.394Z,1175.63
2018-06-17T10:10:04.383Z,1406.25
2018-06-17T10:11:04.385Z,1271.25
2018-06-17T10:12:04.382Z,1141.88
2018-06-17T10:13:04.383Z,1141.88
2018-06-17T10:14:04.382Z,1119.38
2018-06-17T10:15:04.390Z,984.38
2018-06-17T10:16:04.384Z,1096.88
2018-06-17T10:17:04.383Z,1170.00
2018-06-17T10:18:04.584Z,1147.50
2018-06-17T10:19:04.391Z,1175.63
2018-06-17T10:20:04.382Z,1755.00
2018-06-17T10:21:04.398Z,2463.75
2018-06-17T10:22:04.381Z,1788.75
2018-06-17T10:23:04.382Z,2058.75
2018-06-17T10:24:04.382Z,1794.38
2018-06-17T10:25:04.384Z,1665.00
2018-06-17T10:26:04.585Z,1591.88
2018-06-17T10:27:04.386Z,1518.75
2018-06-17T10:28:04.383Z,1496.25
2018-06-17T10:29:04.384Z,1456.88
2018-06-17T10:30:04.384Z,1451.25
2018-06-17T10:31:04.385Z,1631.25
2018-06-17T10:32:04.384Z,1496.25
2018-06-17T10:33:04.385Z,1372.50
2018-06-17T10:34:04.388Z,1485.00
2018-06-17T10:35:04.390Z,1310.63
2018-06-17T10:36:04.389Z,1141.88
2018-06-17T10:37:04.391Z,1023.75
2018-06-17T10:38:04.428Z,1040.63
2018-06-17T10:39:04.388Z,1091.25
2018-06-17T10:40:04.392Z,1063.13
2018-06-17T10:41:04.385Z,1035.00
2018-06-17T10:42:04.389Z,984.38
2018-06-17T10:43:04.384Z,1018.13
2018-06-17T10:44:04.389Z,1068.75
2018-06-17T10:45:04.386Z,1063.13
2018-06-17T10:46:04.590Z,1046.25
2018-06-17T10:47:04.385Z,1029.38
2018-06-17T10:48:04.381Z,1029.38
2018-06-17T10:49:04.382Z,1012.50
2018-06-17T10:50:04.378Z,978.75
2018-06-17T10:52:04.377Z,967.50
2018-06-17T10:53:04.374Z,967.50
2018-06-17T10:54:04.375Z,939.38
2018-06-17T10:55:04.376Z,894.38
2018-06-17T10:56:04.768Z,849.38
2018-06-17T10:57:04.368Z,804.38
2018-06-17T10:58:04.366Z,759.38
2018-06-17T10:59:04.364Z,725.63
2018-06-17T11:00:04.362Z,703.13
2018-06-17T11:01:04.565Z,691.88
2018-06-17T11:02:04.360Z,675.00
2018-06-17T11:03:04.356Z,630.00
2018-06-17T11:04:04.354Z,562.50
2018-06-17T11:05:04.352Z,556.88
2018-06-17T11:06:04.349Z,601.88
2018-06-17T11:07:04.347Z,613.13
2018-06-17T11:08:04.344Z,613.13
2018-06-17T11:09:04.341Z,613.13
2018-06-17T11:10:04.540Z,607.50
2018-06-17T11:11:04.335Z,596.25
2018-06-17T11:12:04.336Z,613.13
2018-06-17T11:13:04.366Z,641.25
2018-06-17T11:14:04.326Z,663.75
2018-06-17T11:15:04.329Z,691.88
2018-06-17T11:16:04.320Z,708.75
2018-06-17T11:17:04.318Z,736.88
2018-06-17T11:18:04.315Z,736.88
2018-06-17T11:19:04.311Z,748.13
2018-06-17T11:20:04.315Z,765.00
2018-06-17T11:21:04.307Z,787.50
2018-06-17T11:22:04.306Z,804.38
2018-06-17T11:23:04.304Z,843.75
2018-06-17T11:24:04.499Z,877.50
2018-06-17T11:25:04.292Z,933.75
2018-06-17T11:26:04.491Z,984.38
2018-06-17T11:27:04.290Z,1023.75
2018-06-17T11:28:04.284Z,1096.88
2018-06-17T11:29:04.482Z,1170.00
2018-06-17T11:30:04.284Z,1406.25
2018-06-17T11:31:04.274Z,1468.13
2018-06-17T11:32:04.270Z,1254.38
2018-06-17T11:33:04.270Z,1203.75
2018-06-17T11:34:04.265Z,1136.25
2018-06-17T11:35:04.264Z,1147.50
2018-06-17T11:36:04.260Z,1243.13
2018-06-17T11:37:04.258Z,1293.75
2018-06-17T11:38:04.256Z,1372.50
2018-06-17T11:39:04.420Z,1501.88
2018-06-17T11:40:04.255Z,1648.13
2018-06-17T11:41:04.252Z,1726.88
2018-06-17T11:42:04.249Z,1383.75
2018-06-17T11:43:04.245Z,1164.38
2018-06-17T11:44:04.250Z,1164.38
2018-06-17T11:45:04.242Z,1198.13
2018-06-17T11:46:04.240Z,1440.00
2018-06-17T11:47:04.239Z,1501.88
2018-06-17T11:48:04.242Z,1338.75
2018-06-17T11:49:04.236Z,1333.13
2018-06-17T11:50:04.239Z,1321.88
2018-06-17T11:51:04.234Z,1276.88
2018-06-17T11:52:04.235Z,1513.13
2018-06-17T11:53:04.434Z,1383.75
2018-06-17T11:54:04.230Z,1361.25
2018-06-17T11:55:04.229Z,1265.63
2018-06-17T11:56:04.228Z,1226.25
2018-06-17T11:57:04.229Z,1271.25
2018-06-17T11:58:04.226Z,1254.38
2018-06-17T11:59:04.225Z,1372.50
2018-06-17T12:00:04.226Z,1518.75
2018-06-17T12:01:04.225Z,1395.00
2018-06-17T12:02:04.223Z,1181.25
2018-06-17T12:03:04.225Z,950.63
2018-06-17T12:04:04.221Z,871.88
2018-06-17T12:05:04.223Z,900.00
2018-06-17T12:06:04.221Z,905.63
2018-06-17T12:07:04.217Z,866.25
2018-06-17T12:08:04.215Z,798.75
2018-06-17T12:09:04.214Z,793.13
2018-06-17T12:10:04.222Z,815.63
2018-06-17T12:11:04.219Z,832.50
2018-06-17T12:12:04.209Z,776.25
2018-06-17T12:13:04.212Z,708.75
2018-06-17T12:14:04.205Z,703.13
2018-06-17T12:15:04.209Z,725.63
2018-06-17T12:16:04.203Z,720.00
2018-06-17T12:17:04.199Z,663.75
2018-06-17T12:18:04.199Z,646.88
2018-06-17T12:19:04.195Z,691.88
2018-06-17T12:20:04.193Z,759.38
2018-06-17T12:21:04.189Z,838.13
2018-06-17T12:22:04.188Z,961.88
2018-06-17T12:23:04.186Z,1125.00
2018-06-17T12:24:04.181Z,1231.88
2018-06-17T12:25:04.179Z,1305.00
2018-06-17T12:26:04.180Z,1445.63
2018-06-17T12:27:04.174Z,1423.13
2018-06-17T12:28:04.176Z,2064.38
2018-06-17T12:29:04.173Z,2705.63
2018-06-17T12:30:04.168Z,2266.88
2018-06-17T12:31:04.168Z,2250.00
2018-06-17T12:32:04.166Z,1591.88
2018-06-17T12:33:04.371Z,1265.63
2018-06-17T12:34:04.371Z,1400.63
2018-06-17T12:35:04.165Z,1248.75
2018-06-17T12:36:04.165Z,1181.25
2018-06-17T12:37:04.167Z,1417.50
2018-06-17T12:38:04.164Z,1186.88
2018-06-17T12:39:04.164Z,1293.75
2018-06-17T12:40:04.164Z,1271.25
2018-06-17T12:41:04.166Z,1158.75
2018-06-17T12:42:04.163Z,1141.88
2018-06-17T12:43:04.163Z,1108.13
2018-06-17T12:44:04.163Z,1012.50
2018-06-17T12:45:04.163Z,973.13